Wetterstation Holzhau im Erzgebirge
Aktuelle Wetterinformationen aus dem Erzgebirge
Bei Facebook empfehlen Bei Twitter posten Google plus Pinterest
Holzhau Holzhau Holzhau Holzhau

Das Wetter im Erzgebirge vom Vortag (16.08.2017)

Wetter und Klima am 16.08.2017 Holzhau im Erzgebirge (630m ü.NN)
Letzte gemessene Temperatur und Uhrzeit der Messung10:15:00 Uhr16.90 °C
Temperatur (Maximum / Höchstwert) und Uhrzeit der Messung09:30:00 Uhr17.90 °C
Temperatur (Minimum / Tiefstwert) und Uhrzeit der Messung06:30:0014.10 °C
Errechneter Absolutwert der Temperaturschwankungen zwischen Tmin und Tmax des Tages3.80 K
Errechnete Tagesmitteltemperatur15.52857 °C
Gesamt - Niederschlag des Tages (in flüssiger Form)0.00 Liter / m²
Luftdruck (Maximum / Höchstwert) und Zeitpunkt der Messung10:15:00 Uhr1017.70 hPa
Luftdruck (Minimum / Tiefstwert) und Zeitpunkt der Messung00:00:00 Uhr1015.10 hPa
Errechneter Absolutwert der Luftdruckschwankungen des Tages2.60 hPa
Höchste gemessene Windgeschwindigkeit und Uhrzeit der Messung10:15:00 Uhr0.00 km/h
Errechnete Windhäufigkeit in Relation zu den Messwerten des Tages0.00000 %
Niedrigste Windkühle (Windchill) und Zeitpunkt der Messung06:30:00 Uhr14.10 °C
Taupunkt (Maximum / Höchstwert) und Uhrzeit der Messung09:30:00 Uhr15.20 °C
Taupunkt (Minimum / Tiefstwert) und Uhrzeit der Messung02:00:0011.60 °C
Anzahl der automatisch eingelesenen Messwerte 42

Detaillierte Wetter- und Klima- Messwerte für den 16.08.2017 in Holzhau im Erzgebirge (630m ü.NN)
ZeitTemperaturLuftdruckRel. LuftfeuchteWindWindrichtungWindchillTaupunktNiederschlag l/m²
10:15:0016.90 °C1017.70 hPa88.00 %14.90 °C 
10:00:0017.10 °C1017.60 hPa86.00 %14.70 °C 
09:45:0017.70 °C1017.40 hPa84.00 %15.00 °C 
09:30:0017.90 °C1017.30 hPa84.00 %15.20 °C 
09:15:0017.60 °C1017.10 hPa86.00 %15.20 °C 
09:00:0017.30 °C1017.10 hPa86.00 %14.90 °C 
08:45:0016.80 °C1017.00 hPa88.00 %14.80 °C 
08:30:0016.20 °C1016.90 hPa89.00 %14.40 °C 
08:15:0016.00 °C1016.90 hPa89.00 %14.20 °C 
08:00:0015.80 °C1016.60 hPa90.00 %14.20 °C 
07:45:0015.30 °C1016.70 hPa90.00 %13.70 °C 
07:30:0014.90 °C1016.70 hPa90.00 %13.30 °C 
07:15:0014.60 °C1016.50 hPa90.00 %13.00 °C 
07:00:0014.40 °C1016.20 hPa90.00 %12.80 °C 
06:45:0014.30 °C1016.10 hPa90.00 %12.70 °C 
06:30:0014.10 °C1016.20 hPa89.00 %12.30 °C 
06:15:0014.20 °C1016.00 hPa89.00 %12.40 °C 
06:00:0014.40 °C1016.00 hPa88.00 %12.40 °C 
05:45:0014.80 °C1015.90 hPa88.00 %12.80 °C 
05:30:0015.00 °C1015.80 hPa88.00 %13.00 °C 
05:15:0015.10 °C1015.70 hPa88.00 %13.10 °C 
05:00:0015.10 °C1015.40 hPa88.00 %13.10 °C 
04:45:0015.10 °C1015.50 hPa87.00 %13.00 °C 
04:30:0015.10 °C1015.60 hPa87.00 %13.00 °C 
04:15:0015.10 °C1015.40 hPa87.00 %13.00 °C 
04:00:0015.10 °C1015.60 hPa86.00 %12.80 °C 
03:45:0015.20 °C1015.60 hPa85.00 %12.70 °C 
03:30:0015.40 °C1015.60 hPa85.00 %12.90 °C 
03:15:0015.40 °C1015.70 hPa85.00 %12.90 °C 
03:00:0015.20 °C1015.80 hPa86.00 %12.90 °C 
02:45:0014.90 °C1015.80 hPa86.00 %12.60 °C 
02:30:0014.60 °C1016.00 hPa85.00 %12.10 °C 
02:15:0014.40 °C1015.90 hPa84.00 %11.70 °C 
02:00:0014.50 °C1015.90 hPa83.00 %11.60 °C 
01:45:0014.60 °C1015.90 hPa83.00 %11.70 °C 
01:30:0014.80 °C1016.00 hPa82.00 %11.80 °C 
01:15:0014.90 °C1015.90 hPa81.00 %11.70 °C 
01:00:0015.40 °C1015.70 hPa79.00 %11.80 °C 
00:45:0016.10 °C1015.50 hPa77.00 %12.10 °C 
00:30:0016.40 °C1015.20 hPa77.00 %12.40 °C 
00:15:0016.90 °C1015.20 hPa75.00 %12.40 °C 
00:00:0017.60 °C1015.10 hPa73.00 %12.70 °C 

Permanenter Link zu dieser Seite: Wetter im Erzgebirge am 16.08.2017
Performance-Info: Die Erstellung der Seite / Statistik(en) / Tabelle(n) erforderte 3 Datenbankserver-Abfrage(n) und dauerte 78 Millisekunden. (Dieser Messwert ist von der Gesamt-Auslastung des Servers abhängig.)

Aktuelle Nachrichten von holzhau.de